Historyczne dane pomiarowe

Dodano dane terminowe – wersja testowa.

Dane z okresu 1951-2019

Wersja bazy: 1.34 [2019-03-16, lista zmian], aktualizacja planowana na 2019-04-15

Dane meteo z obszaru Polski uzyskane na podstawie danych udostępnionych przez Instytut Meteorologii i Gospodarki Wodnej – Państwowy Instytut Badawczy.

 

Wybierz Datę:    

       

TemperaturaWilgotnośćWiatrCiśnienieOpadyŚniegCzas trwania zjawisk
 Stacja t tx tn tng RH VA  wxwx mslp ppp RRR   cm mm wxwxwxwxwxwxwx
1983-08-14 13.9 21.2 8.1- 73.3- 5.7 1.0---- 0.2------------
1983-08-13 15.8 20.5 12.2- 76.3- 7.3 2.0---- 9.2------------
1983-08-12 18.9 25.9 12.7- 69.8- 3.3 1.3---- 0.0------------
1983-08-11 17.8 24.2 12.0- 78.5- 4.3 1.7---- 0.0------------
1983-08-10 17.4 23.8 12.2- 77.8- 3.7 1.3---- 0.0------------
1983-08-09 18.6 23.4 14.3- 78.8- 5.3 1.7---- 0.0------------
1983-08-08 17.5 21.0 14.0- 83.3- 8.0 1.3---- 2.9------------
1983-08-07 15.0 18.0 12.3- 87.5- 8.0 0.0---- 1.6------------
1983-08-06 14.8 17.6 11.3- 76.3- 7.7 2.3---- 0.1------------
1983-08-05 12.8 14.9 8.5- 72.8- 5.7 4.3---- 0.0------------
1983-08-04 11.0 16.7 10.3- 88.3- 8.0 0.7---- 1.4------------
1983-08-03 18.7 21.9 16.7- 79.3- 4.7 4.0---- 3.3------------
1983-08-02 19.6 24.3 16.9- 78.8- 7.3 0.7---- 6.9------------
1983-08-01 19.8 29.9 9.9- 66.5- 0.0 2.0---- 0.0------------
1983-07-31 17.1 23.4 10.0- 68.0- 0.0 2.3---- 0.0------------
1983-07-30 18.1 22.9 14.9- 76.5- 5.3 3.0---- 0.7------------
1983-07-29 19.1 23.2 13.4- 71.0- 4.7 1.7---- 9.2------------
1983-07-28 22.5 26.6 18.1- 63.5- 5.3 2.0---- 0.0------------
1983-07-27 21.2 31.1 11.9- 66.8- 1.3 1.3---- 0.0------------
1983-07-26 18.8 26.3 10.5- 72.5- 1.0 1.7---- 0.0------------
1983-07-25 16.5 20.2 12.0- 75.5- 3.7 1.3---- 0.0------------
1983-07-24 16.5 22.8 10.4- 77.5- 3.3 1.3---- 3.9------------
1983-07-23 17.5 21.2 13.4- 72.0- 5.0 2.7---- 0.0------------
1983-07-22 13.0 14.6 7.5- 76.5- 8.0 1.3---- 3.4------------
1983-07-21 13.0 15.8 9.4- 60.0- 5.3 4.0---- 0.1------------
1983-07-20 16.8 23.5 12.4- 81.0- 7.0 1.3---- 1.8------------
1983-07-19 22.0 27.6 15.3- 69.8- 0.7 2.0---- 0.0------------
1983-07-18 21.2 29.8 13.5- 69.0- 1.0 1.0---- 2.5------------
1983-07-17 19.9 25.9 12.7- 75.0- 2.0 0.7---- 0.0------------
1983-07-16 19.3 27.0 13.2- 71.3- 2.7 1.0---- 0.0------------
1983-07-15 19.6 24.0 13.7- 76.0- 4.0 1.3---- 0.0------------
1983-07-14 17.2 22.9 15.5- 89.0- 8.0 3.0---- 23.9------------
1983-07-13 20.1 24.8 15.1- 72.8- 6.7 1.3---- 3.3------------
1983-07-12 17.3 22.4 14.6- 88.0- 7.0 2.7---- 39.0------------
1983-07-11 17.3 25.5 13.7- 83.5- 8.0 0.3---- 11.1------------
1983-07-10 20.7 27.0 12.3- 64.8- 3.0 0.7---- 0.0------------
1983-07-09 19.0 25.5 9.6- 67.5- 1.3 0.0---- 0.0------------
1983-07-08 19.6 26.6 12.0- 64.3- 0.0 1.0---- 0.0------------
1983-07-07 21.3 27.5 13.3- 65.8- 1.3 1.0---- 0.0------------
1983-07-06 19.8 26.0 12.2- 70.8- 1.7 1.7---- 0.0------------
1983-07-05 18.6 24.8 11.0- 72.5- 2.3 1.3---- 0.0------------
1983-07-04 18.4 24.5 10.7- 71.5- 1.7 0.3---- 0.0------------
1983-07-03 17.1 22.7 11.2- 77.0- 3.7 0.3---- 0.0------------
1983-07-02 17.2 21.5 13.6- 80.5- 8.0 3.3---- 0.0------------
1983-07-01 18.2 24.9 9.8- 69.8- 2.7 1.3---- 0.0------------
1983-06-30 14.6 21.6 5.5- 70.3- 3.3 1.0---- 0.0------------
1983-06-29 13.0 17.4 7.0- 69.8- 3.3 0.3---- 0.0------------
1983-06-28 15.4 18.3 13.6- 86.8- 8.0 1.3---- 3.4------------
1983-06-27 19.6 26.2 13.8- 74.8- 4.7 1.7---- 20.0------------
1983-06-26 20.0 24.0 15.3- 72.5- 6.3 0.3---- 0.0------------
1983-06-25 20.0 26.5 11.5- 55.3- 0.0 2.3---- 2.6------------
1983-06-24 17.0 24.8 8.1- 70.0- 1.0 0.0---- 0.0------------
1983-06-23 12.7 19.8 4.9- 71.3- 0.0 2.7---- 0.0------------
1983-06-22 15.7 23.4 13.3- 58.0- 1.3 3.3---- 0.0------------
1983-06-21 18.4 23.3 13.2- 74.0- 4.7 2.3---- 0.0------------
1983-06-20 16.3 17.9 14.9- 95.5- 7.7 1.3---- 5.4------------
1983-06-19 13.9 16.9 8.9- 93.3- 8.0 2.3---- 18.4------------
1983-06-18 11.5 13.9 9.0- 89.5- 8.0 3.0---- 21.9------------
1983-06-17 11.7 13.1 9.5- 79.8- 8.0 3.0---- 8.8------------
1983-06-16 10.8 13.5 8.0- 87.8- 8.0 1.3---- 3.2------------
321.2 ms

 

Źródłem pochodzenia danych jest Instytut Meteorologii i Gospodarki Wodnej – Państwowy Instytut Badawczy. Dane Instytutu Meteorologii i Gospodarki Wodnej – Państwowego Instytutu Badawczego zostały przetworzone.

Dane źródłowe można odnaleźć na stronie https://dane.imgw.pl